sensor_id;sensor_type;location;lat;lon;timestamp;P1;durP1;ratioP1;P2;durP2;ratioP2
3054;SDS011;1537;52.018;8.542;2023-11-21T00:03:01;23.10;;;14.70;;
3054;SDS011;1537;52.018;8.542;2023-11-21T00:06:28;20.03;;;13.70;;
3054;SDS011;1537;52.018;8.542;2023-11-21T00:09:52;20.33;;;13.40;;
3054;SDS011;1537;52.018;8.542;2023-11-21T00:13:17;23.73;;;15.50;;
3054;SDS011;1537;52.018;8.542;2023-11-21T00:16:43;28.10;;;16.30;;
3054;SDS011;1537;52.018;8.542;2023-11-21T00:20:07;23.40;;;15.00;;
3054;SDS011;1537;52.018;8.542;2023-11-21T00:23:34;21.93;;;14.17;;
3054;SDS011;1537;52.018;8.542;2023-11-21T00:26:58;25.00;;;14.20;;
3054;SDS011;1537;52.018;8.542;2023-11-21T00:30:22;23.37;;;14.57;;
3054;SDS011;1537;52.018;8.542;2023-11-21T00:33:48;29.57;;;14.90;;
3054;SDS011;1537;52.018;8.542;2023-11-21T00:37:12;30.57;;;16.57;;
3054;SDS011;1537;52.018;8.542;2023-11-21T00:40:37;25.43;;;15.20;;
3054;SDS011;1537;52.018;8.542;2023-11-21T00:44:03;22.90;;;15.00;;
3054;SDS011;1537;52.018;8.542;2023-11-21T00:47:28;25.37;;;15.07;;
3054;SDS011;1537;52.018;8.542;2023-11-21T00:50:54;26.87;;;14.60;;
3054;SDS011;1537;52.018;8.542;2023-11-21T00:54:18;19.83;;;14.83;;
3054;SDS011;1537;52.018;8.542;2023-11-21T00:57:41;22.17;;;14.70;;
3054;SDS011;1537;52.018;8.542;2023-11-21T01:01:05;24.60;;;15.80;;
3054;SDS011;1537;52.018;8.542;2023-11-21T01:04:32;24.53;;;14.30;;
3054;SDS011;1537;52.018;8.542;2023-11-21T01:07:58;21.07;;;14.90;;
3054;SDS011;1537;52.018;8.542;2023-11-21T01:11:21;21.53;;;14.87;;
3054;SDS011;1537;52.018;8.542;2023-11-21T01:14:45;27.90;;;15.70;;
3054;SDS011;1537;52.018;8.542;2023-11-21T01:18:10;29.27;;;14.63;;
3054;SDS011;1537;52.018;8.542;2023-11-21T01:21:34;22.43;;;13.40;;
3054;SDS011;1537;52.018;8.542;2023-11-21T01:25:00;30.23;;;18.93;;
3054;SDS011;1537;52.018;8.542;2023-11-21T01:28:26;27.30;;;14.33;;
3054;SDS011;1537;52.018;8.542;2023-11-21T01:31:50;23.67;;;15.43;;
3054;SDS011;1537;52.018;8.542;2023-11-21T01:35:14;22.87;;;14.03;;
3054;SDS011;1537;52.018;8.542;2023-11-21T01:38:38;22.80;;;15.23;;
3054;SDS011;1537;52.018;8.542;2023-11-21T01:42:04;22.40;;;13.70;;
3054;SDS011;1537;52.018;8.542;2023-11-21T01:45:29;23.40;;;14.50;;
3054;SDS011;1537;52.018;8.542;2023-11-21T01:48:55;24.73;;;15.30;;
3054;SDS011;1537;52.018;8.542;2023-11-21T01:52:20;25.43;;;14.87;;
3054;SDS011;1537;52.018;8.542;2023-11-21T01:55:43;22.77;;;14.87;;
3054;SDS011;1537;52.018;8.542;2023-11-21T01:59:11;25.73;;;15.60;;
3054;SDS011;1537;52.018;8.542;2023-11-21T02:02:38;20.43;;;14.30;;
3054;SDS011;1537;52.018;8.542;2023-11-21T02:06:03;23.23;;;15.50;;
3054;SDS011;1537;52.018;8.542;2023-11-21T02:09:28;22.13;;;13.70;;
3054;SDS011;1537;52.018;8.542;2023-11-21T02:12:53;27.40;;;15.17;;
3054;SDS011;1537;52.018;8.542;2023-11-21T02:16:20;24.60;;;16.03;;
3054;SDS011;1537;52.018;8.542;2023-11-21T02:19:44;29.67;;;15.37;;
3054;SDS011;1537;52.018;8.542;2023-11-21T02:23:11;21.57;;;14.13;;
3054;SDS011;1537;52.018;8.542;2023-11-21T02:26:35;23.23;;;14.37;;
3054;SDS011;1537;52.018;8.542;2023-11-21T02:29:58;23.30;;;14.40;;
3054;SDS011;1537;52.018;8.542;2023-11-21T02:33:24;22.33;;;13.07;;
3054;SDS011;1537;52.018;8.542;2023-11-21T02:36:48;24.40;;;15.27;;
3054;SDS011;1537;52.018;8.542;2023-11-21T02:40:15;31.03;;;13.80;;
3054;SDS011;1537;52.018;8.542;2023-11-21T02:43:44;25.50;;;13.43;;
3054;SDS011;1537;52.018;8.542;2023-11-21T02:47:07;19.80;;;11.57;;
3054;SDS011;1537;52.018;8.542;2023-11-21T02:50:31;32.60;;;12.73;;
3054;SDS011;1537;52.018;8.542;2023-11-21T02:53:56;27.43;;;12.97;;
3054;SDS011;1537;52.018;8.542;2023-11-21T02:57:22;21.63;;;12.83;;
3054;SDS011;1537;52.018;8.542;2023-11-21T03:00:46;17.90;;;13.50;;
3054;SDS011;1537;52.018;8.542;2023-11-21T03:04:10;24.50;;;13.20;;
3054;SDS011;1537;52.018;8.542;2023-11-21T03:07:40;21.17;;;13.10;;
3054;SDS011;1537;52.018;8.542;2023-11-21T03:11:04;22.33;;;13.07;;
3054;SDS011;1537;52.018;8.542;2023-11-21T03:14:29;21.13;;;13.00;;
3054;SDS011;1537;52.018;8.542;2023-11-21T03:17:55;19.20;;;12.13;;
3054;SDS011;1537;52.018;8.542;2023-11-21T03:21:19;20.77;;;13.20;;
3054;SDS011;1537;52.018;8.542;2023-11-21T03:24:44;23.80;;;13.50;;
3054;SDS011;1537;52.018;8.542;2023-11-21T03:28:08;20.47;;;11.90;;
3054;SDS011;1537;52.018;8.542;2023-11-21T03:31:33;23.53;;;12.43;;
3054;SDS011;1537;52.018;8.542;2023-11-21T03:34:57;29.67;;;13.30;;
3054;SDS011;1537;52.018;8.542;2023-11-21T03:38:23;25.03;;;14.07;;
3054;SDS011;1537;52.018;8.542;2023-11-21T03:41:47;26.77;;;12.80;;
3054;SDS011;1537;52.018;8.542;2023-11-21T03:45:11;24.43;;;13.40;;
3054;SDS011;1537;52.018;8.542;2023-11-21T03:48:36;31.20;;;15.03;;
3054;SDS011;1537;52.018;8.542;2023-11-21T03:52:00;23.83;;;13.33;;
3054;SDS011;1537;52.018;8.542;2023-11-21T03:55:27;24.07;;;12.60;;
3054;SDS011;1537;52.018;8.542;2023-11-21T03:58:51;27.83;;;13.90;;
3054;SDS011;1537;52.018;8.542;2023-11-21T04:02:15;23.80;;;13.17;;
3054;SDS011;1537;52.018;8.542;2023-11-21T04:05:44;23.97;;;14.07;;
3054;SDS011;1537;52.018;8.542;2023-11-21T04:09:12;30.03;;;16.33;;
3054;SDS011;1537;52.018;8.542;2023-11-21T04:12:36;27.40;;;14.03;;
3054;SDS011;1537;52.018;8.542;2023-11-21T04:15:59;27.70;;;15.63;;
3054;SDS011;1537;52.018;8.542;2023-11-21T04:19:25;26.40;;;15.57;;
3054;SDS011;1537;52.018;8.542;2023-11-21T04:22:51;29.73;;;15.30;;
3054;SDS011;1537;52.018;8.542;2023-11-21T04:26:15;25.13;;;14.90;;
3054;SDS011;1537;52.018;8.542;2023-11-21T04:29:40;32.70;;;16.93;;
3054;SDS011;1537;52.018;8.542;2023-11-21T04:33:05;26.10;;;15.73;;
3054;SDS011;1537;52.018;8.542;2023-11-21T04:36:30;28.97;;;19.80;;
3054;SDS011;1537;52.018;8.542;2023-11-21T04:39:55;36.67;;;18.87;;
3054;SDS011;1537;52.018;8.542;2023-11-21T04:43:19;31.23;;;16.07;;
3054;SDS011;1537;52.018;8.542;2023-11-21T04:46:43;31.33;;;19.53;;
3054;SDS011;1537;52.018;8.542;2023-11-21T04:50:07;39.47;;;20.20;;
3054;SDS011;1537;52.018;8.542;2023-11-21T04:53:32;34.73;;;17.90;;
3054;SDS011;1537;52.018;8.542;2023-11-21T04:57:01;36.17;;;19.13;;
3054;SDS011;1537;52.018;8.542;2023-11-21T05:00:25;33.80;;;19.70;;
3054;SDS011;1537;52.018;8.542;2023-11-21T05:03:49;32.23;;;19.27;;
3054;SDS011;1537;52.018;8.542;2023-11-21T05:07:14;36.93;;;23.13;;
3054;SDS011;1537;52.018;8.542;2023-11-21T05:10:39;37.20;;;21.00;;
3054;SDS011;1537;52.018;8.542;2023-11-21T05:14:04;34.70;;;20.07;;
3054;SDS011;1537;52.018;8.542;2023-11-21T05:17:29;33.67;;;19.10;;
3054;SDS011;1537;52.018;8.542;2023-11-21T05:21:02;33.07;;;20.23;;
3054;SDS011;1537;52.018;8.542;2023-11-21T05:24:26;31.80;;;20.07;;
3054;SDS011;1537;52.018;8.542;2023-11-21T05:27:51;27.60;;;19.07;;
3054;SDS011;1537;52.018;8.542;2023-11-21T05:31:16;36.07;;;22.63;;
3054;SDS011;1537;52.018;8.542;2023-11-21T05:34:41;34.27;;;19.50;;
3054;SDS011;1537;52.018;8.542;2023-11-21T05:38:05;30.33;;;19.47;;
3054;SDS011;1537;52.018;8.542;2023-11-21T05:41:29;33.50;;;20.47;;
3054;SDS011;1537;52.018;8.542;2023-11-21T05:44:53;30.77;;;19.20;;
3054;SDS011;1537;52.018;8.542;2023-11-21T05:48:18;30.47;;;18.20;;
3054;SDS011;1537;52.018;8.542;2023-11-21T05:51:43;30.53;;;20.00;;
3054;SDS011;1537;52.018;8.542;2023-11-21T05:55:08;27.13;;;18.97;;
3054;SDS011;1537;52.018;8.542;2023-11-21T05:58:33;35.97;;;18.80;;
3054;SDS011;1537;52.018;8.542;2023-11-21T06:01:57;29.37;;;17.10;;
3054;SDS011;1537;52.018;8.542;2023-11-21T06:05:23;25.80;;;18.20;;
3054;SDS011;1537;52.018;8.542;2023-11-21T06:08:48;29.37;;;18.73;;
3054;SDS011;1537;52.018;8.542;2023-11-21T06:12:12;31.50;;;18.07;;
3054;SDS011;1537;52.018;8.542;2023-11-21T06:15:36;26.80;;;19.07;;
3054;SDS011;1537;52.018;8.542;2023-11-21T06:19:02;32.30;;;17.43;;
3054;SDS011;1537;52.018;8.542;2023-11-21T06:22:28;28.50;;;17.90;;
3054;SDS011;1537;52.018;8.542;2023-11-21T06:25:53;28.10;;;17.07;;
3054;SDS011;1537;52.018;8.542;2023-11-21T06:29:17;30.13;;;19.23;;
3054;SDS011;1537;52.018;8.542;2023-11-21T06:32:41;31.23;;;16.93;;
3054;SDS011;1537;52.018;8.542;2023-11-21T06:36:10;27.93;;;18.60;;
3054;SDS011;1537;52.018;8.542;2023-11-21T06:39:36;32.40;;;19.73;;
3054;SDS011;1537;52.018;8.542;2023-11-21T06:43:00;29.73;;;19.23;;
3054;SDS011;1537;52.018;8.542;2023-11-21T06:46:24;27.13;;;19.53;;
3054;SDS011;1537;52.018;8.542;2023-11-21T06:49:48;29.67;;;18.07;;
3054;SDS011;1537;52.018;8.542;2023-11-21T06:53:13;24.60;;;17.17;;
3054;SDS011;1537;52.018;8.542;2023-11-21T06:56:40;25.00;;;16.97;;
3054;SDS011;1537;52.018;8.542;2023-11-21T07:00:04;30.17;;;17.13;;
3054;SDS011;1537;52.018;8.542;2023-11-21T07:03:31;25.97;;;18.07;;
3054;SDS011;1537;52.018;8.542;2023-11-21T07:06:55;25.97;;;17.00;;
3054;SDS011;1537;52.018;8.542;2023-11-21T07:10:19;32.30;;;18.50;;
3054;SDS011;1537;52.018;8.542;2023-11-21T07:13:44;26.57;;;16.50;;
3054;SDS011;1537;52.018;8.542;2023-11-21T07:17:08;29.60;;;17.23;;
3054;SDS011;1537;52.018;8.542;2023-11-21T07:20:32;29.30;;;17.20;;
3054;SDS011;1537;52.018;8.542;2023-11-21T07:23:56;23.30;;;14.63;;
3054;SDS011;1537;52.018;8.542;2023-11-21T07:27:20;33.13;;;17.60;;
3054;SDS011;1537;52.018;8.542;2023-11-21T07:30:47;29.43;;;15.40;;
3054;SDS011;1537;52.018;8.542;2023-11-21T07:34:12;29.63;;;15.60;;
3054;SDS011;1537;52.018;8.542;2023-11-21T07:37:38;32.13;;;16.33;;
3054;SDS011;1537;52.018;8.542;2023-11-21T07:41:02;28.97;;;15.77;;
3054;SDS011;1537;52.018;8.542;2023-11-21T07:44:31;25.23;;;15.87;;
3054;SDS011;1537;52.018;8.542;2023-11-21T07:47:57;24.00;;;14.60;;
3054;SDS011;1537;52.018;8.542;2023-11-21T07:51:23;29.10;;;15.67;;
3054;SDS011;1537;52.018;8.542;2023-11-21T07:54:47;24.30;;;15.40;;
3054;SDS011;1537;52.018;8.542;2023-11-21T07:58:11;30.40;;;15.50;;
3054;SDS011;1537;52.018;8.542;2023-11-21T08:01:35;25.57;;;12.80;;
3054;SDS011;1537;52.018;8.542;2023-11-21T08:05:02;22.60;;;12.97;;
3054;SDS011;1537;52.018;8.542;2023-11-21T08:08:27;21.10;;;13.00;;
3054;SDS011;1537;52.018;8.542;2023-11-21T08:11:51;25.20;;;11.97;;
3054;SDS011;1537;52.018;8.542;2023-11-21T08:15:15;28.23;;;16.00;;
3054;SDS011;1537;52.018;8.542;2023-11-21T08:18:39;29.77;;;17.13;;
3054;SDS011;1537;52.018;8.542;2023-11-21T08:22:04;27.43;;;16.83;;
3054;SDS011;1537;52.018;8.542;2023-11-21T08:25:29;25.13;;;15.33;;
3054;SDS011;1537;52.018;8.542;2023-11-21T08:28:55;24.53;;;15.27;;
3054;SDS011;1537;52.018;8.542;2023-11-21T08:32:19;23.30;;;13.90;;
3054;SDS011;1537;52.018;8.542;2023-11-21T08:35:43;19.90;;;11.57;;
3054;SDS011;1537;52.018;8.542;2023-11-21T08:39:09;24.63;;;14.50;;
3054;SDS011;1537;52.018;8.542;2023-11-21T08:42:36;26.90;;;16.40;;
3054;SDS011;1537;52.018;8.542;2023-11-21T08:46:02;32.87;;;18.17;;
3054;SDS011;1537;52.018;8.542;2023-11-21T08:49:26;31.23;;;15.47;;
3054;SDS011;1537;52.018;8.542;2023-11-21T08:52:52;28.30;;;17.13;;
3054;SDS011;1537;52.018;8.542;2023-11-21T08:56:17;33.77;;;18.13;;
3054;SDS011;1537;52.018;8.542;2023-11-21T08:59:41;28.67;;;15.47;;
3054;SDS011;1537;52.018;8.542;2023-11-21T09:03:05;25.20;;;14.27;;
3054;SDS011;1537;52.018;8.542;2023-11-21T09:06:30;26.23;;;14.33;;
3054;SDS011;1537;52.018;8.542;2023-11-21T09:09:54;24.37;;;14.27;;
3054;SDS011;1537;52.018;8.542;2023-11-21T09:13:19;22.37;;;12.90;;
3054;SDS011;1537;52.018;8.542;2023-11-21T09:16:45;23.10;;;12.43;;
3054;SDS011;1537;52.018;8.542;2023-11-21T09:20:10;21.27;;;12.50;;
3054;SDS011;1537;52.018;8.542;2023-11-21T09:23:34;15.57;;;11.30;;
3054;SDS011;1537;52.018;8.542;2023-11-21T09:26:58;22.43;;;11.33;;
3054;SDS011;1537;52.018;8.542;2023-11-21T09:30:23;15.73;;;9.70;;
3054;SDS011;1537;52.018;8.542;2023-11-21T09:33:47;16.23;;;8.73;;
3054;SDS011;1537;52.018;8.542;2023-11-21T09:37:11;16.27;;;10.03;;
3054;SDS011;1537;52.018;8.542;2023-11-21T09:40:36;18.30;;;10.43;;
3054;SDS011;1537;52.018;8.542;2023-11-21T09:44:00;15.53;;;9.57;;
3054;SDS011;1537;52.018;8.542;2023-11-21T09:47:31;15.57;;;10.70;;
3054;SDS011;1537;52.018;8.542;2023-11-21T09:50:59;12.13;;;8.47;;
3054;SDS011;1537;52.018;8.542;2023-11-21T09:54:25;17.03;;;11.60;;
3054;SDS011;1537;52.018;8.542;2023-11-21T09:57:51;18.43;;;12.50;;
3054;SDS011;1537;52.018;8.542;2023-11-21T10:01:20;20.43;;;12.20;;
3054;SDS011;1537;52.018;8.542;2023-11-21T10:04:47;18.60;;;8.83;;
3054;SDS011;1537;52.018;8.542;2023-11-21T10:08:11;16.20;;;8.53;;
3054;SDS011;1537;52.018;8.542;2023-11-21T10:11:35;18.37;;;9.60;;
3054;SDS011;1537;52.018;8.542;2023-11-21T10:15:00;12.30;;;9.07;;
3054;SDS011;1537;52.018;8.542;2023-11-21T10:18:28;11.50;;;7.40;;
3054;SDS011;1537;52.018;8.542;2023-11-21T10:21:53;12.53;;;7.30;;
3054;SDS011;1537;52.018;8.542;2023-11-21T10:25:19;13.63;;;8.70;;
3054;SDS011;1537;52.018;8.542;2023-11-21T10:28:54;15.37;;;9.20;;
3054;SDS011;1537;52.018;8.542;2023-11-21T10:32:22;12.30;;;6.37;;
3054;SDS011;1537;52.018;8.542;2023-11-21T10:35:52;11.47;;;6.20;;
3054;SDS011;1537;52.018;8.542;2023-11-21T10:39:19;12.87;;;7.73;;
3054;SDS011;1537;52.018;8.542;2023-11-21T10:42:45;14.47;;;6.90;;
3054;SDS011;1537;52.018;8.542;2023-11-21T10:46:09;11.20;;;7.30;;
3054;SDS011;1537;52.018;8.542;2023-11-21T10:49:33;10.90;;;6.03;;
3054;SDS011;1537;52.018;8.542;2023-11-21T10:52:57;13.17;;;6.17;;
3054;SDS011;1537;52.018;8.542;2023-11-21T10:56:23;16.50;;;7.07;;
3054;SDS011;1537;52.018;8.542;2023-11-21T10:59:52;9.60;;;4.40;;
3054;SDS011;1537;52.018;8.542;2023-11-21T11:03:18;11.67;;;6.77;;
3054;SDS011;1537;52.018;8.542;2023-11-21T11:06:45;9.57;;;6.37;;
3054;SDS011;1537;52.018;8.542;2023-11-21T11:10:14;11.53;;;7.13;;
3054;SDS011;1537;52.018;8.542;2023-11-21T11:13:40;12.80;;;10.40;;
3054;SDS011;1537;52.018;8.542;2023-11-21T11:17:07;11.27;;;7.77;;
3054;SDS011;1537;52.018;8.542;2023-11-21T11:20:34;10.30;;;6.77;;
3054;SDS011;1537;52.018;8.542;2023-11-21T11:24:05;12.83;;;6.30;;
3054;SDS011;1537;52.018;8.542;2023-11-21T11:27:40;10.03;;;6.43;;
3054;SDS011;1537;52.018;8.542;2023-11-21T11:31:14;11.50;;;8.63;;
3054;SDS011;1537;52.018;8.542;2023-11-21T11:34:49;13.70;;;7.40;;
3054;SDS011;1537;52.018;8.542;2023-11-21T11:38:22;11.23;;;8.37;;
3054;SDS011;1537;52.018;8.542;2023-11-21T11:41:48;14.10;;;9.30;;
3054;SDS011;1537;52.018;8.542;2023-11-21T11:45:17;13.63;;;8.77;;
3054;SDS011;1537;52.018;8.542;2023-11-21T11:48:43;20.20;;;9.23;;
3054;SDS011;1537;52.018;8.542;2023-11-21T11:55:58;12.33;;;8.77;;
3054;SDS011;1537;52.018;8.542;2023-11-21T12:03:33;13.50;;;9.00;;
3054;SDS011;1537;52.018;8.542;2023-11-21T12:07:03;15.07;;;8.63;;
3054;SDS011;1537;52.018;8.542;2023-11-21T12:10:29;14.93;;;8.77;;
3054;SDS011;1537;52.018;8.542;2023-11-21T12:13:54;14.57;;;8.17;;
3054;SDS011;1537;52.018;8.542;2023-11-21T12:17:19;14.73;;;9.33;;
3054;SDS011;1537;52.018;8.542;2023-11-21T12:20:42;13.03;;;8.30;;
3054;SDS011;1537;52.018;8.542;2023-11-21T12:24:11;13.73;;;8.67;;
3054;SDS011;1537;52.018;8.542;2023-11-21T12:27:36;12.77;;;8.27;;
3054;SDS011;1537;52.018;8.542;2023-11-21T12:31:00;12.03;;;9.10;;
3054;SDS011;1537;52.018;8.542;2023-11-21T12:34:36;16.47;;;9.13;;
3054;SDS011;1537;52.018;8.542;2023-11-21T12:38:01;14.63;;;9.57;;
3054;SDS011;1537;52.018;8.542;2023-11-21T12:41:28;13.00;;;8.53;;
3054;SDS011;1537;52.018;8.542;2023-11-21T12:45:06;14.10;;;8.93;;
3054;SDS011;1537;52.018;8.542;2023-11-21T12:48:31;15.57;;;9.87;;
3054;SDS011;1537;52.018;8.542;2023-11-21T12:51:55;12.23;;;7.80;;
3054;SDS011;1537;52.018;8.542;2023-11-21T12:55:19;11.50;;;8.60;;
3054;SDS011;1537;52.018;8.542;2023-11-21T13:02:38;13.00;;;7.83;;
3054;SDS011;1537;52.018;8.542;2023-11-21T13:06:05;12.30;;;8.17;;
3054;SDS011;1537;52.018;8.542;2023-11-21T13:09:29;14.93;;;8.20;;
3054;SDS011;1537;52.018;8.542;2023-11-21T13:12:53;10.83;;;7.33;;
3054;SDS011;1537;52.018;8.542;2023-11-21T13:16:21;13.63;;;8.93;;
3054;SDS011;1537;52.018;8.542;2023-11-21T13:19:45;13.30;;;8.37;;
3054;SDS011;1537;52.018;8.542;2023-11-21T13:23:09;10.77;;;6.83;;
3054;SDS011;1537;52.018;8.542;2023-11-21T13:26:34;9.33;;;6.20;;
3054;SDS011;1537;52.018;8.542;2023-11-21T13:29:58;9.90;;;5.43;;
3054;SDS011;1537;52.018;8.542;2023-11-21T13:33:24;15.50;;;6.83;;
3054;SDS011;1537;52.018;8.542;2023-11-21T13:36:49;11.93;;;7.70;;
3054;SDS011;1537;52.018;8.542;2023-11-21T13:40:20;10.83;;;7.03;;
3054;SDS011;1537;52.018;8.542;2023-11-21T13:43:47;10.20;;;7.20;;
3054;SDS011;1537;52.018;8.542;2023-11-21T13:47:19;8.53;;;5.63;;
3054;SDS011;1537;52.018;8.542;2023-11-21T13:50:48;11.37;;;6.10;;
3054;SDS011;1537;52.018;8.542;2023-11-21T13:54:19;12.23;;;8.00;;
3054;SDS011;1537;52.018;8.542;2023-11-21T13:57:43;10.80;;;7.80;;
3054;SDS011;1537;52.018;8.542;2023-11-21T14:01:11;10.13;;;6.37;;
3054;SDS011;1537;52.018;8.542;2023-11-21T14:04:54;11.83;;;7.60;;
3054;SDS011;1537;52.018;8.542;2023-11-21T14:08:23;12.57;;;7.27;;
3054;SDS011;1537;52.018;8.542;2023-11-21T14:11:50;11.50;;;5.97;;
3054;SDS011;1537;52.018;8.542;2023-11-21T14:15:15;11.67;;;6.53;;
3054;SDS011;1537;52.018;8.542;2023-11-21T14:18:41;8.07;;;5.90;;
3054;SDS011;1537;52.018;8.542;2023-11-21T14:22:15;9.37;;;6.10;;
3054;SDS011;1537;52.018;8.542;2023-11-21T14:25:40;9.40;;;5.37;;
3054;SDS011;1537;52.018;8.542;2023-11-21T14:29:05;8.97;;;5.73;;
3054;SDS011;1537;52.018;8.542;2023-11-21T14:32:30;10.60;;;6.40;;
3054;SDS011;1537;52.018;8.542;2023-11-21T14:35:57;9.10;;;5.80;;
3054;SDS011;1537;52.018;8.542;2023-11-21T14:39:21;8.20;;;5.23;;
3054;SDS011;1537;52.018;8.542;2023-11-21T14:42:47;9.97;;;5.20;;
3054;SDS011;1537;52.018;8.542;2023-11-21T14:46:11;8.53;;;6.13;;
3054;SDS011;1537;52.018;8.542;2023-11-21T14:49:38;11.70;;;6.40;;
3054;SDS011;1537;52.018;8.542;2023-11-21T14:53:06;13.70;;;6.80;;
3054;SDS011;1537;52.018;8.542;2023-11-21T14:56:31;8.80;;;5.83;;
3054;SDS011;1537;52.018;8.542;2023-11-21T14:59:57;10.57;;;6.80;;
3054;SDS011;1537;52.018;8.542;2023-11-21T15:03:21;7.83;;;6.53;;
3054;SDS011;1537;52.018;8.542;2023-11-21T15:07:05;8.93;;;6.33;;
3054;SDS011;1537;52.018;8.542;2023-11-21T15:10:29;9.27;;;5.20;;
3054;SDS011;1537;52.018;8.542;2023-11-21T15:14:02;10.70;;;5.30;;
3054;SDS011;1537;52.018;8.542;2023-11-21T15:17:30;9.33;;;5.63;;
3054;SDS011;1537;52.018;8.542;2023-11-21T15:20:54;11.40;;;6.50;;
3054;SDS011;1537;52.018;8.542;2023-11-21T15:24:17;10.47;;;6.53;;
3054;SDS011;1537;52.018;8.542;2023-11-21T15:27:41;10.00;;;7.17;;
3054;SDS011;1537;52.018;8.542;2023-11-21T15:31:05;9.50;;;7.43;;
3054;SDS011;1537;52.018;8.542;2023-11-21T15:34:31;12.90;;;6.80;;
3054;SDS011;1537;52.018;8.542;2023-11-21T15:37:55;11.73;;;6.67;;
3054;SDS011;1537;52.018;8.542;2023-11-21T15:41:21;11.57;;;6.60;;
3054;SDS011;1537;52.018;8.542;2023-11-21T15:44:44;10.07;;;7.23;;
3054;SDS011;1537;52.018;8.542;2023-11-21T15:48:08;8.20;;;5.20;;
3054;SDS011;1537;52.018;8.542;2023-11-21T15:51:34;9.50;;;5.77;;
3054;SDS011;1537;52.018;8.542;2023-11-21T15:54:58;12.20;;;6.80;;
3054;SDS011;1537;52.018;8.542;2023-11-21T15:58:21;9.70;;;6.50;;
3054;SDS011;1537;52.018;8.542;2023-11-21T16:01:46;12.73;;;7.07;;
3054;SDS011;1537;52.018;8.542;2023-11-21T16:05:10;10.03;;;5.93;;
3054;SDS011;1537;52.018;8.542;2023-11-21T16:08:37;13.60;;;8.63;;
3054;SDS011;1537;52.018;8.542;2023-11-21T16:12:01;10.00;;;6.50;;
3054;SDS011;1537;52.018;8.542;2023-11-21T16:15:27;11.77;;;6.60;;
3054;SDS011;1537;52.018;8.542;2023-11-21T16:18:51;10.83;;;6.90;;
3054;SDS011;1537;52.018;8.542;2023-11-21T16:22:15;9.13;;;7.10;;
3054;SDS011;1537;52.018;8.542;2023-11-21T16:25:40;10.93;;;6.70;;
3054;SDS011;1537;52.018;8.542;2023-11-21T16:29:04;8.87;;;6.60;;
3054;SDS011;1537;52.018;8.542;2023-11-21T16:32:28;10.43;;;5.27;;
3054;SDS011;1537;52.018;8.542;2023-11-21T16:35:54;10.00;;;6.87;;
3054;SDS011;1537;52.018;8.542;2023-11-21T16:39:18;9.60;;;6.63;;
3054;SDS011;1537;52.018;8.542;2023-11-21T16:42:45;12.70;;;7.33;;
3054;SDS011;1537;52.018;8.542;2023-11-21T16:46:11;11.53;;;8.20;;
3054;SDS011;1537;52.018;8.542;2023-11-21T16:49:36;9.53;;;6.30;;
3054;SDS011;1537;52.018;8.542;2023-11-21T16:53:01;8.00;;;5.27;;
3054;SDS011;1537;52.018;8.542;2023-11-21T16:56:25;10.47;;;6.73;;
3054;SDS011;1537;52.018;8.542;2023-11-21T16:59:51;9.47;;;6.50;;
3054;SDS011;1537;52.018;8.542;2023-11-21T17:03:15;11.03;;;6.17;;
3054;SDS011;1537;52.018;8.542;2023-11-21T17:06:39;10.67;;;6.90;;
3054;SDS011;1537;52.018;8.542;2023-11-21T17:10:04;11.40;;;7.80;;
3054;SDS011;1537;52.018;8.542;2023-11-21T17:13:31;9.60;;;6.57;;
3054;SDS011;1537;52.018;8.542;2023-11-21T17:16:56;10.33;;;6.77;;
3054;SDS011;1537;52.018;8.542;2023-11-21T17:20:19;9.67;;;5.80;;
3054;SDS011;1537;52.018;8.542;2023-11-21T17:23:43;10.00;;;6.37;;
3054;SDS011;1537;52.018;8.542;2023-11-21T17:27:07;9.90;;;6.73;;
3054;SDS011;1537;52.018;8.542;2023-11-21T17:30:32;9.20;;;5.70;;
3054;SDS011;1537;52.018;8.542;2023-11-21T17:33:57;10.10;;;6.20;;
3054;SDS011;1537;52.018;8.542;2023-11-21T17:37:21;9.47;;;6.47;;
3054;SDS011;1537;52.018;8.542;2023-11-21T17:40:45;8.30;;;6.43;;
3054;SDS011;1537;52.018;8.542;2023-11-21T17:44:08;9.07;;;6.00;;
3054;SDS011;1537;52.018;8.542;2023-11-21T17:47:32;9.90;;;6.90;;
3054;SDS011;1537;52.018;8.542;2023-11-21T17:50:57;8.83;;;5.90;;
3054;SDS011;1537;52.018;8.542;2023-11-21T17:54:21;10.23;;;6.63;;
3054;SDS011;1537;52.018;8.542;2023-11-21T17:57:45;12.50;;;6.50;;
3054;SDS011;1537;52.018;8.542;2023-11-21T18:01:09;11.20;;;5.67;;
3054;SDS011;1537;52.018;8.542;2023-11-21T18:04:33;9.30;;;5.90;;
3054;SDS011;1537;52.018;8.542;2023-11-21T18:07:58;9.47;;;6.60;;
3054;SDS011;1537;52.018;8.542;2023-11-21T18:11:24;8.30;;;6.00;;
3054;SDS011;1537;52.018;8.542;2023-11-21T18:14:48;9.17;;;6.00;;
3054;SDS011;1537;52.018;8.542;2023-11-21T18:18:13;9.10;;;5.93;;
3054;SDS011;1537;52.018;8.542;2023-11-21T18:21:39;8.93;;;6.67;;
3054;SDS011;1537;52.018;8.542;2023-11-21T18:25:06;9.27;;;6.23;;
3054;SDS011;1537;52.018;8.542;2023-11-21T18:28:30;11.10;;;6.80;;
3054;SDS011;1537;52.018;8.542;2023-11-21T18:31:54;9.70;;;7.87;;
3054;SDS011;1537;52.018;8.542;2023-11-21T18:35:18;10.23;;;5.10;;
3054;SDS011;1537;52.018;8.542;2023-11-21T18:38:42;9.60;;;7.17;;
3054;SDS011;1537;52.018;8.542;2023-11-21T18:42:07;12.07;;;7.00;;
3054;SDS011;1537;52.018;8.542;2023-11-21T18:45:30;8.00;;;4.70;;
3054;SDS011;1537;52.018;8.542;2023-11-21T18:48:56;11.17;;;6.53;;
3054;SDS011;1537;52.018;8.542;2023-11-21T18:52:20;10.17;;;6.73;;
3054;SDS011;1537;52.018;8.542;2023-11-21T18:55:45;11.60;;;7.10;;
3054;SDS011;1537;52.018;8.542;2023-11-21T18:59:10;10.30;;;6.93;;
3054;SDS011;1537;52.018;8.542;2023-11-21T19:02:35;10.60;;;6.73;;
3054;SDS011;1537;52.018;8.542;2023-11-21T19:05:59;8.00;;;5.93;;
3054;SDS011;1537;52.018;8.542;2023-11-21T19:09:23;7.67;;;5.50;;
3054;SDS011;1537;52.018;8.542;2023-11-21T19:12:46;15.80;;;6.30;;
3054;SDS011;1537;52.018;8.542;2023-11-21T19:16:14;10.63;;;5.60;;
3054;SDS011;1537;52.018;8.542;2023-11-21T19:19:38;6.57;;;4.27;;
3054;SDS011;1537;52.018;8.542;2023-11-21T19:23:02;7.37;;;4.43;;
3054;SDS011;1537;52.018;8.542;2023-11-21T19:26:26;6.77;;;4.93;;
3054;SDS011;1537;52.018;8.542;2023-11-21T19:29:50;8.00;;;5.00;;
3054;SDS011;1537;52.018;8.542;2023-11-21T19:33:15;8.43;;;5.10;;
3054;SDS011;1537;52.018;8.542;2023-11-21T19:36:39;10.23;;;5.10;;
3054;SDS011;1537;52.018;8.542;2023-11-21T19:40:05;8.10;;;5.07;;
3054;SDS011;1537;52.018;8.542;2023-11-21T19:43:30;9.33;;;5.73;;
3054;SDS011;1537;52.018;8.542;2023-11-21T19:46:53;7.20;;;4.90;;
3054;SDS011;1537;52.018;8.542;2023-11-21T19:50:19;10.00;;;6.20;;
3054;SDS011;1537;52.018;8.542;2023-11-21T19:53:42;9.13;;;5.67;;
3054;SDS011;1537;52.018;8.542;2023-11-21T19:57:06;7.50;;;5.30;;
3054;SDS011;1537;52.018;8.542;2023-11-21T20:00:33;10.47;;;6.47;;
3054;SDS011;1537;52.018;8.542;2023-11-21T20:03:57;8.80;;;5.73;;
3054;SDS011;1537;52.018;8.542;2023-11-21T20:07:22;8.73;;;4.97;;
3054;SDS011;1537;52.018;8.542;2023-11-21T20:10:47;8.50;;;6.10;;
3054;SDS011;1537;52.018;8.542;2023-11-21T20:14:11;9.80;;;6.03;;
3054;SDS011;1537;52.018;8.542;2023-11-21T20:17:35;9.60;;;6.17;;
3054;SDS011;1537;52.018;8.542;2023-11-21T20:21:01;8.13;;;5.90;;
3054;SDS011;1537;52.018;8.542;2023-11-21T20:24:26;7.47;;;5.77;;
3054;SDS011;1537;52.018;8.542;2023-11-21T20:27:50;10.70;;;6.57;;
3054;SDS011;1537;52.018;8.542;2023-11-21T20:31:14;9.10;;;5.80;;
3054;SDS011;1537;52.018;8.542;2023-11-21T20:34:38;7.83;;;5.77;;
3054;SDS011;1537;52.018;8.542;2023-11-21T20:38:02;9.20;;;6.33;;
3054;SDS011;1537;52.018;8.542;2023-11-21T20:41:27;10.00;;;7.03;;
3054;SDS011;1537;52.018;8.542;2023-11-21T20:44:51;10.60;;;5.60;;
3054;SDS011;1537;52.018;8.542;2023-11-21T20:48:15;12.70;;;6.20;;
3054;SDS011;1537;52.018;8.542;2023-11-21T20:51:41;8.10;;;5.77;;
3054;SDS011;1537;52.018;8.542;2023-11-21T20:55:08;9.20;;;6.30;;
3054;SDS011;1537;52.018;8.542;2023-11-21T20:58:35;9.30;;;6.30;;
3054;SDS011;1537;52.018;8.542;2023-11-21T21:01:58;8.40;;;6.00;;
3054;SDS011;1537;52.018;8.542;2023-11-21T21:05:23;8.87;;;5.27;;